createdAt,value
2022-12-31T00:01:30.741Z,15.45
2022-12-31T00:03:58.396Z,16.08
2022-12-31T00:06:35.677Z,16.80
2022-12-31T00:09:06.313Z,16.63
2022-12-31T00:11:35.432Z,14.85
2022-12-31T00:14:03.494Z,15.95
2022-12-31T00:16:34.290Z,16.38
2022-12-31T00:19:02.381Z,14.98
2022-12-31T00:21:32.252Z,15.88
2022-12-31T00:24:00.345Z,15.50
2022-12-31T00:26:30.760Z,14.68
2022-12-31T00:29:00.029Z,15.30
2022-12-31T00:31:36.707Z,16.33
2022-12-31T00:34:05.367Z,16.38
2022-12-31T00:36:35.376Z,16.85
2022-12-31T00:39:05.233Z,15.20
2022-12-31T00:41:33.163Z,14.98
2022-12-31T00:44:01.188Z,15.82
2022-12-31T00:46:29.161Z,17.17
2022-12-31T00:48:56.724Z,16.55
2022-12-31T00:51:27.593Z,18.27
2022-12-31T00:53:57.083Z,16.60
2022-12-31T00:56:27.826Z,16.45
2022-12-31T00:58:55.839Z,14.88
2022-12-31T01:01:28.132Z,14.40
2022-12-31T01:04:07.857Z,15.27
2022-12-31T01:06:36.354Z,15.50
2022-12-31T01:09:04.703Z,15.55
2022-12-31T01:11:33.179Z,16.20
2022-12-31T01:14:12.697Z,14.85
2022-12-31T01:16:47.178Z,14.48
2022-12-31T01:19:19.096Z,14.10
2022-12-31T01:21:47.717Z,15.05
2022-12-31T01:24:16.313Z,14.38
2022-12-31T01:26:44.812Z,13.88
2022-12-31T01:29:13.137Z,14.00
2022-12-31T01:31:40.988Z,14.13
2022-12-31T01:34:09.266Z,13.98
2022-12-31T01:36:38.189Z,14.80
2022-12-31T01:39:08.155Z,14.63
2022-12-31T01:41:42.540Z,14.60
2022-12-31T01:44:13.062Z,14.90
2022-12-31T01:46:46.502Z,15.40
2022-12-31T01:49:36.901Z,14.98
2022-12-31T01:52:09.025Z,15.27
2022-12-31T01:54:44.357Z,16.05
2022-12-31T01:57:13.175Z,14.63
2022-12-31T01:59:42.466Z,15.47
2022-12-31T02:02:10.492Z,15.95
2022-12-31T02:04:39.574Z,16.92
2022-12-31T02:07:09.149Z,18.30
2022-12-31T02:09:39.807Z,16.25
2022-12-31T02:12:08.517Z,17.05
2022-12-31T02:14:40.055Z,15.37
2022-12-31T02:17:44.971Z,16.50
2022-12-31T02:20:41.918Z,16.10
2022-12-31T02:23:47.800Z,15.90
2022-12-31T02:26:18.433Z,15.23
2022-12-31T02:29:01.121Z,17.55
2022-12-31T02:31:36.517Z,16.85
2022-12-31T02:34:25.533Z,18.25
2022-12-31T02:36:58.011Z,18.38
2022-12-31T02:39:26.097Z,19.45
2022-12-31T02:41:54.014Z,19.23
2022-12-31T02:47:08.150Z,19.95
2022-12-31T02:49:44.550Z,21.95
2022-12-31T02:52:17.834Z,19.92
2022-12-31T02:55:03.074Z,22.00
2022-12-31T02:58:09.272Z,19.88
2022-12-31T03:01:04.075Z,21.83
2022-12-31T03:03:32.840Z,22.60
2022-12-31T03:06:03.336Z,22.02
2022-12-31T03:08:31.032Z,22.52
2022-12-31T03:10:58.750Z,22.27
2022-12-31T03:13:26.341Z,21.08
2022-12-31T03:15:54.316Z,21.13
2022-12-31T03:18:41.847Z,21.00
2022-12-31T03:21:32.460Z,20.52
2022-12-31T03:24:18.510Z,21.55
2022-12-31T03:26:46.105Z,19.80
2022-12-31T03:29:13.916Z,21.60
2022-12-31T03:31:41.509Z,23.58
2022-12-31T03:34:09.209Z,23.52
2022-12-31T03:36:37.156Z,24.30
2022-12-31T03:39:05.735Z,25.77
2022-12-31T03:41:33.444Z,25.60
2022-12-31T03:44:01.217Z,26.98
2022-12-31T03:46:28.940Z,28.42
2022-12-31T03:48:56.455Z,24.45
2022-12-31T03:51:24.069Z,24.65
2022-12-31T03:53:51.613Z,24.88
2022-12-31T03:56:24.660Z,23.75
2022-12-31T03:58:52.751Z,23.90
2022-12-31T04:01:24.473Z,22.92
2022-12-31T04:03:54.137Z,22.98
2022-12-31T04:06:22.092Z,21.70
2022-12-31T04:08:50.040Z,21.23
2022-12-31T04:11:20.986Z,22.15
2022-12-31T04:13:52.602Z,21.30
2022-12-31T04:16:20.194Z,21.65
2022-12-31T04:18:48.316Z,23.90
2022-12-31T04:21:16.507Z,24.05
2022-12-31T04:23:44.183Z,24.85
2022-12-31T04:26:11.775Z,27.05
2022-12-31T04:28:39.329Z,27.55
2022-12-31T04:31:06.898Z,28.65
2022-12-31T04:33:34.914Z,29.27
2022-12-31T04:36:07.568Z,31.20
2022-12-31T04:38:35.179Z,30.23
2022-12-31T04:41:17.401Z,28.85
2022-12-31T04:43:50.366Z,28.65
2022-12-31T04:46:20.762Z,27.52
2022-12-31T04:48:49.591Z,28.48
2022-12-31T04:51:17.510Z,28.85
2022-12-31T04:53:45.466Z,26.00
2022-12-31T04:56:13.484Z,27.25
2022-12-31T04:58:41.348Z,26.27
2022-12-31T05:01:09.952Z,25.63
2022-12-31T05:03:39.256Z,24.48
2022-12-31T05:06:14.506Z,23.38
2022-12-31T05:08:42.432Z,22.02
2022-12-31T05:11:11.036Z,22.55
2022-12-31T05:13:39.677Z,22.65
2022-12-31T05:16:08.111Z,22.75
2022-12-31T05:18:36.963Z,22.35
2022-12-31T05:21:04.950Z,24.17
2022-12-31T05:23:32.558Z,21.90
2022-12-31T05:26:01.961Z,23.33
2022-12-31T05:28:29.962Z,19.92
2022-12-31T05:30:57.604Z,21.50
2022-12-31T05:33:25.352Z,21.13
2022-12-31T05:35:52.958Z,21.75
2022-12-31T05:38:21.338Z,21.92
2022-12-31T05:40:48.937Z,20.33
2022-12-31T05:43:16.527Z,20.02
2022-12-31T05:45:44.640Z,19.33
2022-12-31T05:48:12.287Z,19.42
2022-12-31T05:50:39.835Z,20.02
2022-12-31T05:53:09.729Z,20.38
2022-12-31T05:55:38.011Z,18.70
2022-12-31T05:58:05.534Z,18.65
2022-12-31T06:00:33.201Z,19.40
2022-12-31T06:03:00.819Z,20.02
2022-12-31T06:05:28.725Z,19.65
2022-12-31T06:07:56.237Z,21.30
2022-12-31T06:10:24.124Z,21.35
2022-12-31T06:12:52.040Z,22.15
2022-12-31T06:15:19.707Z,21.90
2022-12-31T06:17:47.828Z,23.38
2022-12-31T06:20:15.773Z,22.55
2022-12-31T06:22:43.397Z,24.02
2022-12-31T06:25:11.083Z,22.85
2022-12-31T06:27:38.693Z,23.42
2022-12-31T06:30:07.182Z,22.05
2022-12-31T06:32:35.538Z,23.42
2022-12-31T06:35:03.815Z,22.23
2022-12-31T06:37:31.430Z,22.02
2022-12-31T06:42:31.002Z,21.98
2022-12-31T06:47:26.846Z,23.02
2022-12-31T06:49:54.557Z,22.73
2022-12-31T06:52:22.455Z,21.88
2022-12-31T06:54:50.957Z,22.35
2022-12-31T06:57:18.911Z,21.42
2022-12-31T06:59:46.878Z,20.70
2022-12-31T07:02:35.340Z,21.58
2022-12-31T07:05:21.423Z,21.10
2022-12-31T07:07:49.544Z,22.27
2022-12-31T07:10:25.542Z,22.83
2022-12-31T07:13:18.520Z,22.05
2022-12-31T07:16:07.702Z,22.67
2022-12-31T07:18:43.053Z,22.02
2022-12-31T07:21:13.735Z,22.17
2022-12-31T07:23:42.803Z,22.48
2022-12-31T07:26:35.796Z,24.75
2022-12-31T07:29:25.336Z,24.58
2022-12-31T07:32:26.998Z,24.95
2022-12-31T07:35:09.787Z,27.10
2022-12-31T07:38:01.463Z,24.70
2022-12-31T07:40:38.197Z,25.70
2022-12-31T07:43:34.649Z,25.88
2022-12-31T07:46:20.742Z,23.02
2022-12-31T07:48:48.592Z,23.52
2022-12-31T07:51:16.671Z,23.95
2022-12-31T07:53:44.339Z,23.45
2022-12-31T07:56:12.576Z,23.95
2022-12-31T07:58:40.071Z,24.33
2022-12-31T08:01:13.002Z,22.58
2022-12-31T08:03:49.410Z,24.08
2022-12-31T08:06:58.382Z,25.20
2022-12-31T08:09:43.180Z,22.77
2022-12-31T08:12:11.231Z,23.25
2022-12-31T08:14:48.831Z,22.42
2022-12-31T08:17:18.832Z,23.60
2022-12-31T08:19:47.143Z,22.67
2022-12-31T08:22:23.868Z,22.65
2022-12-31T08:25:19.477Z,21.58
2022-12-31T08:27:58.460Z,20.20
2022-12-31T08:30:37.126Z,20.90
2022-12-31T08:33:19.640Z,21.25
2022-12-31T08:36:22.407Z,20.20
2022-12-31T08:39:19.006Z,20.60
2022-12-31T08:41:49.856Z,22.23
2022-12-31T08:44:45.692Z,20.58
2022-12-31T08:47:16.623Z,20.52
2022-12-31T08:49:44.560Z,20.55
2022-12-31T08:52:20.220Z,20.45
2022-12-31T08:54:48.025Z,21.13
2022-12-31T08:57:23.452Z,19.73
2022-12-31T09:00:06.713Z,20.50
2022-12-31T09:02:34.690Z,20.92
2022-12-31T09:05:07.443Z,20.55
2022-12-31T09:07:40.935Z,20.10
2022-12-31T09:10:30.278Z,20.70
2022-12-31T09:13:11.369Z,19.58
2022-12-31T09:15:57.039Z,20.30
2022-12-31T09:18:29.751Z,19.98
2022-12-31T09:21:02.935Z,20.85
2022-12-31T09:23:31.765Z,20.98
2022-12-31T09:26:11.165Z,20.10
2022-12-31T09:28:48.743Z,21.25
2022-12-31T09:31:34.977Z,21.35
2022-12-31T09:34:15.407Z,20.30
2022-12-31T09:36:50.569Z,20.52
2022-12-31T09:39:30.421Z,19.92
2022-12-31T09:42:21.138Z,21.25
2022-12-31T09:45:15.865Z,18.98
2022-12-31T09:48:14.562Z,19.60
2022-12-31T09:53:31.697Z,22.90
2022-12-31T09:56:29.220Z,19.27
2022-12-31T09:59:18.980Z,20.92
2022-12-31T10:04:52.667Z,19.25
2022-12-31T10:07:52.156Z,20.23
2022-12-31T10:10:34.522Z,20.83
2022-12-31T10:13:08.088Z,22.08
2022-12-31T10:15:55.088Z,19.85
2022-12-31T10:18:23.766Z,20.20
2022-12-31T10:21:07.457Z,20.10
2022-12-31T10:23:44.589Z,21.40
2022-12-31T17:11:36.578Z,18.05
2022-12-31T17:14:10.572Z,17.73
2022-12-31T17:17:03.002Z,17.13
2022-12-31T17:19:43.417Z,17.83
2022-12-31T17:24:48.955Z,15.95
2022-12-31T17:27:17.609Z,17.15
2022-12-31T17:29:45.272Z,18.35
2022-12-31T17:32:37.092Z,17.10
2022-12-31T17:35:42.151Z,18.63
2022-12-31T17:38:18.709Z,18.55
2022-12-31T17:40:51.645Z,19.25
2022-12-31T17:43:22.759Z,17.65
2022-12-31T17:45:54.577Z,17.30
2022-12-31T17:48:24.420Z,17.75
2022-12-31T17:50:53.997Z,17.60
2022-12-31T17:55:55.989Z,16.02
2022-12-31T17:58:46.293Z,18.38
2022-12-31T18:01:16.495Z,18.50
2022-12-31T18:03:44.577Z,18.63
2022-12-31T18:06:16.662Z,16.77
2022-12-31T18:08:44.788Z,16.10
2022-12-31T18:11:17.168Z,16.17
2022-12-31T18:13:45.497Z,17.08
2022-12-31T18:16:14.561Z,16.77
2022-12-31T18:18:42.531Z,16.67
2022-12-31T18:21:18.190Z,14.93
2022-12-31T18:23:48.131Z,17.13
2022-12-31T18:26:22.171Z,18.05
2022-12-31T18:28:51.006Z,16.33
2022-12-31T18:31:21.675Z,18.67
2022-12-31T18:33:50.742Z,17.60
2022-12-31T18:36:20.024Z,18.77
2022-12-31T18:38:47.732Z,19.02
2022-12-31T18:41:24.420Z,16.15
2022-12-31T18:43:52.268Z,15.52
2022-12-31T18:46:24.979Z,15.70
2022-12-31T18:48:52.807Z,14.65
2022-12-31T18:51:29.326Z,15.32
2022-12-31T18:53:59.806Z,15.02
2022-12-31T18:56:28.100Z,16.30
2022-12-31T18:58:55.984Z,15.80
2022-12-31T19:01:32.390Z,16.23
2022-12-31T19:04:03.179Z,15.65
2022-12-31T19:06:31.075Z,15.98
2022-12-31T19:09:00.904Z,16.52
2022-12-31T19:11:33.089Z,16.63
2022-12-31T19:14:01.131Z,16.10
2022-12-31T19:16:29.211Z,17.48
2022-12-31T19:18:57.036Z,16.67
2022-12-31T19:21:24.829Z,16.80
2022-12-31T19:23:52.385Z,15.98
2022-12-31T19:26:22.046Z,16.42
2022-12-31T19:28:51.177Z,17.33
2022-12-31T19:31:18.808Z,16.77
2022-12-31T19:33:47.100Z,16.92
2022-12-31T19:36:19.762Z,15.68
2022-12-31T19:38:47.460Z,15.75
2022-12-31T19:41:20.145Z,15.75
2022-12-31T19:43:48.216Z,15.85
2022-12-31T19:46:17.624Z,15.38
2022-12-31T19:48:46.425Z,15.60
2022-12-31T19:51:19.253Z,15.90
2022-12-31T19:53:48.457Z,15.25
2022-12-31T19:56:19.593Z,16.50
2022-12-31T20:01:25.170Z,15.48
2022-12-31T20:03:52.821Z,15.38
2022-12-31T20:06:20.438Z,14.80
2022-12-31T20:08:48.067Z,15.52
2022-12-31T20:11:19.115Z,15.02
2022-12-31T20:13:49.016Z,15.82
2022-12-31T20:16:19.065Z,15.45
2022-12-31T20:18:47.702Z,17.00
2022-12-31T20:21:21.009Z,14.90
2022-12-31T20:23:50.253Z,16.17
2022-12-31T20:26:18.771Z,15.88
2022-12-31T20:28:46.452Z,16.20
2022-12-31T20:31:17.129Z,16.90
2022-12-31T20:33:44.913Z,16.50
2022-12-31T20:36:14.747Z,15.88
2022-12-31T20:41:16.091Z,16.13
2022-12-31T20:43:44.620Z,14.27
2022-12-31T20:46:21.257Z,14.48
2022-12-31T20:48:51.926Z,13.77
2022-12-31T20:51:21.005Z,14.20
2022-12-31T20:53:57.513Z,13.88
2022-12-31T20:56:27.359Z,13.57
2022-12-31T20:58:54.939Z,18.30
2022-12-31T21:01:25.108Z,14.75
2022-12-31T21:04:09.447Z,14.30
2022-12-31T21:06:37.132Z,15.50
2022-12-31T21:09:07.333Z,15.23
2022-12-31T21:11:53.625Z,14.45
2022-12-31T21:14:21.490Z,14.10
2022-12-31T21:16:49.807Z,15.02
2022-12-31T21:19:17.268Z,14.48
2022-12-31T21:21:44.897Z,14.25
2022-12-31T21:24:12.421Z,13.98
2022-12-31T21:26:40.067Z,14.65
2022-12-31T21:29:07.742Z,14.43
2022-12-31T21:31:35.591Z,13.40
2022-12-31T21:34:03.225Z,14.05
2022-12-31T21:36:31.303Z,13.20
2022-12-31T21:38:59.317Z,13.65
2022-12-31T21:41:45.495Z,13.95
2022-12-31T21:44:13.041Z,14.48
2022-12-31T21:46:54.509Z,11.75
2022-12-31T21:49:28.161Z,13.85
2022-12-31T21:52:14.696Z,13.23
2022-12-31T21:55:00.912Z,13.57
2022-12-31T21:57:29.453Z,13.30
2022-12-31T22:00:41.008Z,13.57
2022-12-31T22:03:23.086Z,13.75
2022-12-31T22:06:14.000Z,13.80
2022-12-31T22:08:44.115Z,14.32
2022-12-31T22:11:13.674Z,12.77
2022-12-31T22:13:41.829Z,12.47
2022-12-31T22:16:09.844Z,11.65
2022-12-31T22:18:39.221Z,11.68
2022-12-31T22:21:18.242Z,11.73
2022-12-31T22:23:50.151Z,12.55
2022-12-31T22:26:19.878Z,11.63
2022-12-31T22:31:21.849Z,11.40
2022-12-31T22:33:49.388Z,12.07
2022-12-31T22:36:19.908Z,11.40
2022-12-31T22:38:49.159Z,10.73
2022-12-31T22:41:21.695Z,12.07
2022-12-31T22:43:52.831Z,12.43
2022-12-31T22:46:24.892Z,11.82
2022-12-31T22:48:56.450Z,12.20
2022-12-31T22:51:23.962Z,11.15
2022-12-31T22:53:51.889Z,11.43
2022-12-31T22:56:20.288Z,11.50
2022-12-31T22:58:48.107Z,11.48
2022-12-31T23:01:19.165Z,11.85
2022-12-31T23:03:47.357Z,10.95
2022-12-31T23:06:17.033Z,11.95
2022-12-31T23:09:06.950Z,11.45
2022-12-31T23:11:36.543Z,10.85
2022-12-31T23:14:24.202Z,12.00
2022-12-31T23:17:29.745Z,11.00
2022-12-31T23:20:16.782Z,10.15
2022-12-31T23:23:05.893Z,11.27
2022-12-31T23:25:43.309Z,10.63
2022-12-31T23:28:16.789Z,10.55
2022-12-31T23:30:48.137Z,11.55
2022-12-31T23:33:22.163Z,10.25
2022-12-31T23:35:50.262Z,10.88
2022-12-31T23:38:18.337Z,10.68
2022-12-31T23:40:45.942Z,10.50
2022-12-31T23:43:21.699Z,10.95
2022-12-31T23:45:53.195Z,10.85
2022-12-31T23:48:20.960Z,10.30
2022-12-31T23:50:53.455Z,10.35
2022-12-31T23:53:23.270Z,9.27
2022-12-31T23:55:51.523Z,11.55
2022-12-31T23:58:19.502Z,11.18
